Skip Navigation Links Skip Navigation Links

Current Weather

Orange County, Montgomery, N.Y.

For information only: do not use for flight planning or navigation.
Latest weather
Observation time Wednesday, August 12, 2020 1:54 PM EDT
Local time Wednesday, August 12, 2020 2:31 PM EDT
Flight conditions Visual Meteorological Conditions
Winds
Wind direction variable
Wind speed 3 mph
Visibility 10 mi.
Sky condition
Ceiling unlimited
Cloud layer few clouds 6,500 ft.
Temperature 86°F
Dewpoint 70°F
Altimeter 30.03 in.Hg
Pressure change last 3 hours0.02 in.Hg
Pressure falling more quickly
Derived measurements
Relative humidity 59%
Heat index 91°F
Density altitude 2299 ft.
Sea-level pressure 30.02 in.Hg
Climate data
Temperature minimum, last 6 hours 72°F
Temperature maximum, last 6 hours 87°F
Remarks
Fully automated report.
Automated weather observing station with precipitation discriminator.
METAR KMGJ 121754Z AUTO VRB03KT 10SM FEW065 30/21 A3003 RMK AO2 SLP165 T03000211 10306 20222 58008

Settings

Location code

InnerDrive.Weather 4.0.6770.0 Release CLR 4.0.30319.42000
Copyright ©2018 Inner Drive Technology. All rights reserved. Portions Copyright ©1986-2018 David Braverman.

Find weather

Site navigation


Skip Navigation Links

Place info

Page info

PayPal - The safer, easier way to pay online!

Return home.

Copyright ©2020 Inner Drive Technology. Purveyors of fine, hand-crafted computer software. Page printed 2020-08-12T18:31:34 UTC.